createdAt,value
2022-08-05T00:00:18.476Z,83.80
2022-08-05T00:02:51.570Z,85.90
2022-08-05T00:06:03.201Z,85.80
2022-08-05T00:08:33.056Z,87.10
2022-08-05T00:11:02.349Z,87.50
2022-08-05T00:13:39.633Z,87.90
2022-08-05T00:16:12.593Z,88.60
2022-08-05T00:18:45.442Z,89.40
2022-08-05T00:21:14.412Z,90.30
2022-08-05T00:23:46.288Z,90.20
2022-08-05T00:26:22.014Z,90.50
2022-08-05T00:28:50.534Z,91.00
2022-08-05T00:31:41.521Z,91.50
2022-08-05T00:34:56.560Z,91.90
2022-08-05T00:37:10.959Z,92.30
2022-08-05T00:39:57.286Z,92.20
2022-08-05T00:42:37.013Z,92.90
2022-08-05T00:45:08.872Z,93.10
2022-08-05T00:47:57.228Z,93.50
2022-08-05T00:50:26.641Z,93.90
2022-08-05T00:52:55.180Z,93.90
2022-08-05T00:55:34.142Z,94.10
2022-08-05T00:58:12.305Z,94.80
2022-08-05T01:00:41.400Z,95.40
2022-08-05T01:03:22.195Z,95.40
2022-08-05T01:05:51.897Z,95.60
2022-08-05T01:08:39.878Z,95.80
2022-08-05T01:11:37.308Z,95.50
2022-08-05T01:14:34.927Z,95.60
2022-08-05T01:17:08.965Z,95.90
2022-08-05T01:20:01.317Z,96.40
2022-08-05T01:23:15.287Z,96.70
2022-08-05T01:26:32.638Z,97.10
2022-08-05T01:29:13.698Z,97.70
2022-08-05T01:31:48.746Z,98.00
2022-08-05T01:34:30.044Z,98.50
2022-08-05T01:37:09.554Z,98.50
2022-08-05T01:39:48.309Z,98.70
2022-08-05T01:42:19.650Z,98.70
2022-08-05T01:44:54.154Z,99.20
2022-08-05T01:47:24.220Z,99.10
2022-08-05T01:50:00.243Z,99.50
2022-08-05T01:52:31.402Z,99.70
2022-08-05T01:55:04.435Z,99.70
2022-08-05T01:58:10.637Z,99.90
2022-08-05T02:00:29.917Z,99.90
2022-08-05T02:03:03.540Z,99.90
2022-08-05T02:05:36.001Z,99.90
2022-08-05T02:08:05.375Z,99.90
2022-08-05T02:10:51.230Z,99.90
2022-08-05T02:13:54.679Z,99.90
2022-08-05T02:16:42.904Z,99.90
2022-08-05T02:19:34.446Z,99.90
2022-08-05T02:22:26.954Z,99.90
2022-08-05T02:25:08.891Z,99.90
2022-08-05T02:27:57.942Z,99.90
2022-08-05T02:30:32.490Z,99.90
2022-08-05T02:33:03.022Z,99.90
2022-08-05T02:35:37.716Z,99.90
2022-08-05T02:38:13.275Z,99.90
2022-08-05T02:40:47.576Z,99.90
2022-08-05T02:43:16.707Z,99.90
2022-08-05T02:45:52.538Z,99.90
2022-08-05T02:48:29.479Z,99.90
2022-08-05T02:51:00.395Z,99.90
2022-08-05T02:53:38.952Z,99.90
2022-08-05T02:56:15.735Z,99.90
2022-08-05T02:58:44.690Z,99.90
2022-08-05T03:01:23.454Z,99.90
2022-08-05T03:04:09.882Z,99.90
2022-08-05T03:06:55.889Z,99.90
2022-08-05T03:09:36.453Z,99.90
2022-08-05T03:12:07.886Z,99.90
2022-08-05T03:14:40.886Z,99.90
2022-08-05T03:17:13.273Z,99.90
2022-08-05T03:19:41.822Z,99.90
2022-08-05T03:22:16.850Z,99.00
2022-08-05T03:24:51.022Z,98.80
2022-08-05T03:27:20.744Z,98.50
2022-08-05T03:30:08.461Z,98.60
2022-08-05T03:32:37.816Z,98.60
2022-08-05T03:35:06.093Z,99.20
2022-08-05T03:37:41.740Z,98.70
2022-08-05T03:40:15.289Z,98.50
2022-08-05T03:42:52.040Z,98.90
2022-08-05T03:45:22.376Z,99.10
2022-08-05T03:47:51.493Z,99.10
2022-08-05T03:50:20.056Z,99.20
2022-08-05T03:55:49.991Z,99.30
2022-08-05T03:56:10.010Z,99.30
2022-08-05T03:58:44.823Z,99.50
2022-08-05T04:01:14.803Z,98.80
2022-08-05T04:04:09.736Z,98.50
2022-08-05T04:06:34.051Z,99.00
2022-08-05T04:09:02.914Z,99.00
2022-08-05T04:11:47.482Z,99.10
2022-08-05T04:14:19.211Z,99.10
2022-08-05T04:16:59.999Z,99.30
2022-08-05T04:19:28.960Z,99.50
2022-08-05T04:22:09.219Z,99.40
2022-08-05T04:24:44.107Z,99.20
2022-08-05T04:27:13.609Z,98.90
2022-08-05T04:29:41.858Z,99.00
2022-08-05T04:32:09.802Z,99.30
2022-08-05T04:34:42.605Z,99.50
2022-08-05T04:37:10.884Z,99.10
2022-08-05T04:39:39.201Z,99.20
2022-08-05T04:42:07.989Z,99.30
2022-08-05T04:44:36.492Z,98.80
2022-08-05T04:47:09.735Z,98.30
2022-08-05T04:50:02.468Z,98.60
2022-08-05T04:52:27.693Z,98.10
2022-08-05T04:54:57.205Z,97.80
2022-08-05T04:57:29.082Z,97.00
2022-08-05T04:59:58.473Z,96.50
2022-08-05T05:02:37.019Z,96.10
2022-08-05T05:05:25.890Z,95.50
2022-08-05T05:08:06.953Z,95.00
2022-08-05T05:10:55.880Z,94.60
2022-08-05T05:13:23.706Z,94.30
2022-08-05T05:15:57.154Z,93.80
2022-08-05T05:18:33.748Z,93.50
2022-08-05T05:21:03.547Z,93.20
2022-08-05T05:23:39.476Z,92.60
2022-08-05T05:26:19.143Z,91.90
2022-08-05T05:28:46.473Z,91.00
2022-08-05T05:31:13.910Z,90.90
2022-08-05T05:33:58.531Z,90.80
2022-08-05T05:36:28.780Z,90.70
2022-08-05T05:39:00.390Z,89.80
2022-08-05T05:41:40.135Z,90.00
2022-08-05T05:44:35.875Z,87.70
2022-08-05T05:46:58.050Z,87.30
2022-08-05T05:49:26.353Z,87.30
2022-08-05T05:51:54.518Z,86.90
2022-08-05T05:54:22.323Z,85.30
2022-08-05T05:57:13.527Z,84.40
2022-08-05T05:59:51.435Z,83.00
2022-08-05T06:02:32.597Z,81.40
2022-08-05T06:05:10.444Z,80.80
2022-08-05T06:08:01.135Z,80.10
2022-08-05T06:10:34.575Z,78.00
2022-08-05T06:13:05.466Z,78.80
2022-08-05T06:16:29.066Z,77.80
2022-08-05T06:18:20.755Z,77.50
2022-08-05T06:21:01.751Z,77.00
2022-08-05T06:23:32.017Z,74.80
2022-08-05T06:26:20.569Z,73.30
2022-08-05T06:28:48.437Z,73.20
2022-08-05T06:31:18.001Z,72.40
2022-08-05T06:34:07.263Z,68.70
2022-08-05T06:36:53.698Z,67.10
2022-08-05T06:39:24.650Z,67.50
2022-08-05T06:41:57.398Z,67.10
2022-08-05T06:44:26.443Z,69.10
2022-08-05T06:46:54.474Z,71.50
2022-08-05T06:50:00.686Z,71.50
2022-08-05T06:52:38.018Z,72.50
2022-08-05T06:54:57.019Z,73.30
2022-08-05T06:58:03.468Z,73.40
2022-08-05T07:00:12.517Z,74.10
2022-08-05T07:02:47.357Z,76.30
2022-08-05T07:05:37.231Z,76.60
2022-08-05T07:08:05.537Z,77.00
2022-08-05T07:10:33.214Z,77.50
2022-08-05T07:13:46.335Z,79.10
2022-08-05T07:18:00.302Z,78.20
2022-08-05T07:19:16.087Z,78.20
2022-08-05T07:22:01.432Z,75.90
2022-08-05T07:24:30.199Z,76.50
2022-08-05T07:26:57.712Z,74.70
2022-08-05T07:30:25.453Z,74.70
2022-08-05T07:32:12.611Z,74.40
2022-08-05T07:34:42.574Z,74.20
2022-08-05T07:37:11.592Z,74.80
2022-08-05T07:40:04.611Z,77.90
2022-08-05T07:42:33.691Z,79.60
2022-08-05T07:45:01.718Z,78.00
2022-08-05T07:47:31.139Z,76.30
2022-08-05T07:50:10.326Z,74.00
2022-08-05T07:52:42.117Z,74.10
2022-08-05T07:55:15.792Z,71.70
2022-08-05T07:58:03.041Z,71.40
2022-08-05T08:00:31.045Z,72.30
2022-08-05T08:03:15.046Z,74.50
2022-08-05T08:05:49.635Z,75.40
2022-08-05T08:08:19.803Z,75.10
2022-08-05T08:10:48.809Z,73.80
2022-08-05T08:13:28.811Z,74.70
2022-08-05T08:16:34.699Z,75.40
2022-08-05T08:18:49.920Z,75.20
2022-08-05T08:21:18.010Z,77.50
2022-08-05T08:24:01.801Z,77.30
2022-08-05T08:26:32.661Z,77.70
2022-08-05T08:29:29.252Z,75.70
2022-08-05T08:31:48.213Z,74.60
2022-08-05T08:34:30.762Z,74.00
2022-08-05T08:37:03.166Z,72.20
2022-08-05T08:39:32.528Z,71.10
2022-08-05T08:42:22.529Z,70.70
2022-08-05T08:45:23.346Z,68.90
2022-08-05T08:48:06.695Z,68.90
2022-08-05T08:51:03.181Z,70.00
2022-08-05T08:53:27.334Z,70.30
2022-08-05T08:56:03.691Z,69.10
2022-08-05T08:58:43.998Z,68.50
2022-08-05T09:01:18.062Z,67.10
2022-08-05T09:03:54.450Z,66.80
2022-08-05T09:06:29.391Z,65.60
2022-08-05T09:09:01.763Z,65.00
2022-08-05T09:11:53.064Z,66.40
2022-08-05T09:14:58.424Z,66.80
2022-08-05T09:17:39.936Z,66.00
2022-08-05T09:20:02.729Z,65.10
2022-08-05T09:23:09.593Z,66.40
2022-08-05T09:26:03.413Z,66.30
2022-08-05T09:28:31.894Z,66.60
2022-08-05T09:31:22.925Z,66.20
2022-08-05T09:33:56.728Z,67.20
2022-08-05T09:36:27.775Z,68.00
2022-08-05T09:39:03.905Z,68.80
2022-08-05T09:42:00.212Z,67.70
2022-08-05T09:44:39.925Z,68.00
2022-08-05T09:47:20.644Z,68.10
2022-08-05T09:50:00.372Z,66.50
2022-08-05T09:52:32.937Z,66.70
2022-08-05T09:55:58.716Z,68.30
2022-08-05T09:57:54.759Z,68.50
2022-08-05T10:00:26.579Z,67.30
2022-08-05T10:02:55.153Z,66.40
2022-08-05T10:05:28.619Z,66.90
2022-08-05T10:08:35.407Z,66.70
2022-08-05T10:10:54.310Z,65.30
2022-08-05T10:13:45.800Z,65.10
2022-08-05T10:16:42.075Z,65.10
2022-08-05T10:19:23.829Z,64.10
2022-08-05T10:22:15.628Z,63.60
2022-08-05T10:24:57.922Z,64.30
2022-08-05T10:28:13.573Z,64.70
2022-08-05T10:31:19.989Z,65.70
2022-08-05T10:33:03.065Z,66.40
2022-08-05T10:35:40.368Z,65.20
2022-08-05T10:38:08.593Z,62.90
2022-08-05T10:40:58.986Z,63.50
2022-08-05T10:43:51.122Z,63.10
2022-08-05T10:46:24.137Z,63.40
2022-08-05T10:49:02.699Z,62.30
2022-08-05T10:51:59.914Z,60.90
2022-08-05T10:55:08.091Z,59.70
2022-08-05T10:57:41.305Z,59.80
2022-08-05T11:00:20.008Z,58.70
2022-08-05T11:03:23.735Z,58.50
2022-08-05T11:06:15.956Z,58.50
2022-08-05T11:09:32.354Z,58.10
2022-08-05T11:12:54.254Z,58.10
2022-08-05T11:16:01.335Z,57.80
2022-08-05T11:18:34.298Z,58.10
2022-08-05T11:21:12.043Z,58.40
2022-08-05T11:24:05.287Z,58.90
2022-08-05T11:26:43.207Z,58.70
2022-08-05T11:29:34.434Z,57.00
2022-08-05T11:32:25.418Z,57.20
2022-08-05T11:34:54.332Z,57.10
2022-08-05T11:38:29.586Z,55.90
2022-08-05T11:41:34.397Z,54.60
2022-08-05T11:44:10.869Z,53.90
2022-08-05T11:46:58.225Z,54.90
2022-08-05T11:49:26.415Z,54.20
2022-08-05T11:51:54.470Z,53.90
2022-08-05T11:54:33.538Z,52.10
2022-08-05T11:57:08.418Z,52.30
2022-08-05T11:59:51.787Z,51.60
2022-08-05T12:02:30.272Z,50.90
2022-08-05T12:05:07.219Z,50.60
2022-08-05T12:08:03.609Z,50.60
2022-08-05T12:10:39.051Z,50.40
2022-08-05T12:13:15.811Z,51.10
2022-08-05T12:15:49.873Z,50.50
2022-08-05T12:18:19.133Z,51.10
2022-08-05T12:20:48.129Z,50.20
2022-08-05T12:23:16.781Z,49.10
2022-08-05T12:25:56.638Z,48.00
2022-08-05T12:28:38.157Z,48.50
2022-08-05T12:31:05.887Z,47.90
2022-08-05T12:33:38.639Z,48.00
2022-08-05T12:36:08.831Z,48.60
2022-08-05T12:38:41.339Z,49.00
2022-08-05T12:41:12.983Z,49.60
2022-08-05T12:43:53.044Z,49.80
2022-08-05T12:46:29.448Z,49.60
2022-08-05T12:49:13.566Z,46.80
2022-08-05T12:52:12.511Z,46.60
2022-08-05T12:54:37.075Z,46.00
2022-08-05T12:57:09.577Z,46.90
2022-08-05T13:01:56.754Z,47.00
2022-08-05T13:02:40.130Z,46.10
2022-08-05T13:05:12.614Z,46.50
2022-08-05T13:07:59.953Z,47.00
2022-08-05T13:10:33.280Z,47.00
2022-08-05T13:13:00.681Z,46.20
2022-08-05T13:15:41.449Z,47.70
2022-08-05T13:18:20.100Z,47.20
2022-08-05T13:20:49.287Z,48.20
2022-08-05T13:23:22.844Z,48.40
2022-08-05T13:25:59.584Z,48.40
2022-08-05T13:28:29.070Z,47.90
2022-08-05T13:30:59.442Z,48.10
2022-08-05T13:34:23.890Z,46.20
2022-08-05T13:36:18.620Z,44.80
2022-08-05T13:38:46.005Z,44.00
2022-08-05T13:41:19.689Z,44.90
2022-08-05T13:43:55.030Z,45.10
2022-08-05T13:46:38.033Z,44.70
2022-08-05T13:49:11.688Z,44.70
2022-08-05T13:51:46.590Z,44.00
2022-08-05T13:54:16.669Z,44.10
2022-08-05T13:56:50.978Z,45.20
2022-08-05T13:59:24.467Z,45.90
2022-08-05T14:02:00.152Z,44.80
2022-08-05T14:04:51.186Z,44.30
2022-08-05T14:08:00.348Z,44.70
2022-08-05T14:10:28.710Z,46.20
2022-08-05T14:12:59.283Z,46.50
2022-08-05T14:16:05.784Z,46.10
2022-08-05T14:18:18.641Z,44.80
2022-08-05T14:20:54.918Z,45.30
2022-08-05T14:23:25.748Z,45.40
2022-08-05T14:25:58.741Z,45.50
2022-08-05T14:28:28.217Z,46.60
2022-08-05T14:30:56.956Z,45.50
2022-08-05T14:33:24.527Z,44.10
2022-08-05T14:35:54.449Z,45.40
2022-08-05T14:38:27.804Z,46.20
2022-08-05T14:41:01.389Z,45.20
2022-08-05T14:44:00.194Z,45.00
2022-08-05T14:46:16.197Z,45.10
2022-08-05T14:48:43.860Z,44.70
2022-08-05T14:51:17.949Z,45.40
2022-08-05T14:53:46.501Z,45.30
2022-08-05T14:56:34.782Z,46.50
2022-08-05T14:59:05.358Z,46.30
2022-08-05T15:01:48.342Z,46.20
2022-08-05T15:04:20.415Z,45.90
2022-08-05T15:06:53.004Z,46.00
2022-08-05T15:09:52.876Z,45.40
2022-08-05T15:12:11.738Z,45.40
2022-08-05T15:14:54.409Z,45.70
2022-08-05T15:17:45.737Z,45.40
2022-08-05T15:20:18.618Z,45.90
2022-08-05T15:22:54.417Z,46.30
2022-08-05T15:25:51.712Z,45.40
2022-08-05T15:28:15.656Z,45.30
2022-08-05T15:30:45.892Z,45.30
2022-08-05T15:34:05.213Z,45.50
2022-08-05T15:36:05.698Z,45.80
2022-08-05T15:38:48.109Z,45.40
2022-08-05T15:41:22.121Z,45.10
2022-08-05T15:43:51.459Z,44.60
2022-08-05T15:46:24.203Z,44.70
2022-08-05T15:48:57.958Z,44.40
2022-08-05T15:52:13.443Z,44.60
2022-08-05T15:54:16.709Z,44.50
2022-08-05T15:56:44.097Z,46.30
2022-08-05T15:59:21.589Z,47.80
2022-08-05T16:01:52.969Z,47.40
2022-08-05T16:04:25.543Z,46.50
2022-08-05T16:06:55.556Z,47.70
2022-08-05T16:09:24.784Z,47.80
2022-08-05T16:11:54.015Z,47.50
2022-08-05T16:14:22.595Z,46.60
2022-08-05T16:16:50.080Z,46.40
2022-08-05T16:19:25.244Z,47.50
2022-08-05T16:22:05.694Z,48.20
2022-08-05T16:24:40.153Z,48.10
2022-08-05T16:27:10.029Z,47.90
2022-08-05T16:29:50.258Z,48.50
2022-08-05T16:32:23.331Z,49.10
2022-08-05T16:34:56.866Z,50.50
2022-08-05T16:38:02.423Z,50.50
2022-08-05T16:40:25.152Z,50.80
2022-08-05T16:42:57.282Z,50.80
2022-08-05T16:46:06.451Z,51.30
2022-08-05T16:48:12.030Z,51.60
2022-08-05T16:50:54.120Z,52.30
2022-08-05T16:53:32.398Z,52.90
2022-08-05T16:56:10.232Z,53.00
2022-08-05T16:58:39.091Z,53.30
2022-08-05T17:01:06.825Z,53.50
2022-08-05T17:03:38.860Z,54.20
2022-08-05T17:06:06.980Z,54.70
2022-08-05T17:08:51.868Z,55.20
2022-08-05T17:11:25.759Z,55.60
2022-08-05T17:14:00.254Z,56.20
2022-08-05T17:16:36.701Z,55.90
2022-08-05T17:19:07.330Z,55.90
2022-08-05T17:21:37.734Z,55.80
2022-08-05T17:24:19.834Z,55.60
2022-08-05T17:26:57.858Z,55.00
2022-08-05T17:29:33.607Z,53.80
2022-08-05T17:32:17.226Z,53.60
2022-08-05T17:34:49.230Z,52.90
2022-08-05T17:37:40.970Z,53.40
2022-08-05T17:40:12.158Z,54.80
2022-08-05T17:42:50.557Z,58.30
2022-08-05T17:45:24.918Z,60.40
2022-08-05T17:47:55.411Z,63.10
2022-08-05T17:50:28.504Z,64.50
2022-08-05T17:53:02.396Z,65.60
2022-08-05T17:55:37.949Z,66.30
2022-08-05T17:58:11.239Z,67.30
2022-08-05T18:00:44.400Z,68.30
2022-08-05T18:03:24.120Z,68.90
2022-08-05T18:06:06.122Z,70.20
2022-08-05T18:08:44.126Z,72.80
2022-08-05T18:11:24.084Z,74.50
2022-08-05T18:13:56.950Z,77.30
2022-08-05T18:16:27.018Z,81.40
2022-08-05T18:18:54.359Z,87.40
2022-08-05T18:21:26.474Z,90.70
2022-08-05T18:24:12.705Z,92.90
2022-08-05T18:26:42.120Z,94.80
2022-08-05T18:29:11.277Z,96.70
2022-08-05T18:31:43.160Z,98.40
2022-08-05T18:34:12.300Z,99.60
2022-08-05T18:36:41.154Z,99.90
2022-08-05T18:39:22.485Z,99.90
2022-08-05T18:42:03.610Z,99.90
2022-08-05T18:44:51.678Z,99.90
2022-08-05T18:47:22.991Z,99.90
2022-08-05T18:50:15.739Z,99.90
2022-08-05T18:52:51.174Z,99.90
2022-08-05T18:55:19.971Z,99.90
2022-08-05T18:57:53.518Z,99.90
2022-08-05T19:00:30.805Z,99.90
2022-08-05T19:03:03.948Z,99.90
2022-08-05T19:06:12.137Z,99.90
2022-08-05T19:08:21.566Z,99.90
2022-08-05T19:10:50.402Z,99.90
2022-08-05T19:13:18.282Z,99.90
2022-08-05T19:15:58.699Z,99.90
2022-08-05T19:18:28.722Z,99.90
2022-08-05T19:20:56.521Z,99.90
2022-08-05T19:24:06.840Z,99.90
2022-08-05T19:26:12.043Z,99.90
2022-08-05T19:28:43.568Z,99.90
2022-08-05T19:31:13.339Z,99.90
2022-08-05T19:33:55.658Z,99.90
2022-08-05T19:36:25.963Z,99.90
2022-08-05T19:39:01.187Z,99.90
2022-08-05T19:41:58.385Z,99.90
2022-08-05T19:44:18.874Z,99.90
2022-08-05T19:46:46.764Z,99.90
2022-08-05T19:49:17.274Z,99.90
2022-08-05T19:52:04.589Z,99.90
2022-08-05T19:54:34.841Z,99.90
2022-08-05T19:57:08.506Z,99.90
2022-08-05T20:00:00.881Z,99.90
2022-08-05T20:02:27.934Z,99.90
2022-08-05T20:04:58.829Z,99.90
2022-08-05T20:07:47.049Z,99.90
2022-08-05T20:10:17.327Z,99.90
2022-08-05T20:12:49.245Z,99.90
2022-08-05T20:15:47.744Z,99.90
2022-08-05T20:18:10.469Z,99.90
2022-08-05T20:20:56.221Z,99.90
2022-08-05T20:23:40.551Z,99.90
2022-08-05T20:26:16.129Z,99.90
2022-08-05T20:28:50.502Z,99.90
2022-08-05T20:31:21.534Z,99.90
2022-08-05T20:33:51.326Z,99.90
2022-08-05T20:36:19.668Z,99.90
2022-08-05T20:38:54.411Z,99.90
2022-08-05T20:41:43.272Z,99.90
2022-08-05T20:44:18.601Z,99.90
2022-08-05T20:47:03.174Z,99.90
2022-08-05T20:49:33.242Z,99.90
2022-08-05T20:52:07.444Z,99.90
2022-08-05T20:54:43.052Z,99.90
2022-08-05T20:57:42.763Z,99.90
2022-08-05T21:00:40.099Z,99.90
2022-08-05T21:03:07.056Z,99.90
2022-08-05T21:05:53.318Z,99.90
2022-08-05T21:08:26.883Z,99.90
2022-08-05T21:11:12.016Z,99.90
2022-08-05T21:13:56.380Z,99.90
2022-08-05T21:16:29.938Z,99.90
2022-08-05T21:19:00.327Z,99.90
2022-08-05T21:21:39.352Z,99.90
2022-08-05T21:24:12.688Z,99.90
2022-08-05T21:26:41.418Z,99.90
2022-08-05T21:29:12.589Z,99.90
2022-08-05T21:31:44.352Z,99.90
2022-08-05T21:34:11.672Z,99.90
2022-08-05T21:36:39.585Z,99.90
2022-08-05T21:39:14.344Z,99.90
2022-08-05T21:41:52.584Z,99.90
2022-08-05T21:44:27.025Z,99.90
2022-08-05T21:46:58.013Z,99.90
2022-08-05T21:49:58.746Z,99.90
2022-08-05T21:52:21.689Z,99.90
2022-08-05T21:54:56.968Z,99.90
2022-08-05T21:57:32.606Z,99.90
2022-08-05T22:00:05.482Z,99.90
2022-08-05T22:02:43.211Z,99.90
2022-08-05T22:05:12.182Z,99.90
2022-08-05T22:07:58.461Z,99.90
2022-08-05T22:10:28.080Z,99.90
2022-08-05T22:12:57.520Z,99.90
2022-08-05T22:16:00.750Z,99.90
2022-08-05T22:18:14.773Z,99.90
2022-08-05T22:20:42.867Z,99.90
2022-08-05T22:24:01.086Z,99.90
2022-08-05T22:26:36.439Z,99.90
2022-08-05T22:29:05.540Z,99.90
2022-08-05T22:31:44.797Z,99.90
2022-08-05T22:34:25.710Z,99.80
2022-08-05T22:36:57.045Z,99.80
2022-08-05T22:39:32.939Z,99.80
2022-08-05T22:42:10.231Z,99.60
2022-08-05T22:44:48.213Z,99.80
2022-08-05T22:47:29.304Z,99.20
2022-08-05T22:50:19.893Z,99.70
2022-08-05T22:52:47.066Z,99.90
2022-08-05T22:55:19.419Z,99.90
2022-08-05T22:57:53.378Z,99.90
2022-08-05T23:00:22.134Z,99.90
2022-08-05T23:02:50.706Z,99.90
2022-08-05T23:05:19.108Z,99.90
2022-08-05T23:07:50.720Z,99.90
2022-08-05T23:10:20.976Z,99.90
2022-08-05T23:12:54.446Z,99.90
2022-08-05T23:15:26.970Z,99.90
2022-08-05T23:18:01.154Z,99.90
2022-08-05T23:20:31.332Z,99.90
2022-08-05T23:22:59.990Z,99.90
2022-08-05T23:25:53.093Z,99.90
2022-08-05T23:28:15.909Z,99.90
2022-08-05T23:30:53.414Z,99.90
2022-08-05T23:33:26.111Z,99.90
2022-08-05T23:36:10.653Z,99.90
2022-08-05T23:38:39.284Z,99.90
2022-08-05T23:41:06.601Z,99.90
2022-08-05T23:44:02.797Z,99.90
2022-08-05T23:46:22.289Z,99.90
2022-08-05T23:49:00.919Z,99.90
2022-08-05T23:51:52.485Z,99.90
2022-08-05T23:54:25.225Z,99.90
2022-08-05T23:57:03.387Z,99.90
2022-08-05T23:59:37.683Z,99.90
